sensor_id;sensor_type;location;lat;lon;timestamp;temperature;humidity
47757;SHT35;22147;52.388;13.390;2023-08-06T00:01:29;17.02;86.36
47757;SHT35;22147;52.388;13.390;2023-08-06T00:04:00;17.02;86.46
47757;SHT35;22147;52.388;13.390;2023-08-06T00:06:31;17.00;86.49
47757;SHT35;22147;52.388;13.390;2023-08-06T00:08:59;17.02;86.56
47757;SHT35;22147;52.388;13.390;2023-08-06T00:11:27;16.97;86.57
47757;SHT35;22147;52.388;13.390;2023-08-06T00:13:56;16.98;86.53
47757;SHT35;22147;52.388;13.390;2023-08-06T00:16:24;16.94;86.58
47757;SHT35;22147;52.388;13.390;2023-08-06T00:18:53;16.92;86.63
47757;SHT35;22147;52.388;13.390;2023-08-06T00:21:21;16.94;86.57
47757;SHT35;22147;52.388;13.390;2023-08-06T00:23:51;16.91;86.63
47757;SHT35;22147;52.388;13.390;2023-08-06T00:26:22;16.90;86.65
47757;SHT35;22147;52.388;13.390;2023-08-06T00:28:52;16.88;86.66
47757;SHT35;22147;52.388;13.390;2023-08-06T00:31:22;16.92;86.69
47757;SHT35;22147;52.388;13.390;2023-08-06T00:33:52;16.88;86.74
47757;SHT35;22147;52.388;13.390;2023-08-06T00:36:23;16.85;86.57
47757;SHT35;22147;52.388;13.390;2023-08-06T00:38:53;16.84;86.69
47757;SHT35;22147;52.388;13.390;2023-08-06T00:41:25;16.88;86.59
47757;SHT35;22147;52.388;13.390;2023-08-06T00:43:56;16.92;86.48
47757;SHT35;22147;52.388;13.390;2023-08-06T00:46:27;16.90;86.41
47757;SHT35;22147;52.388;13.390;2023-08-06T00:48:58;16.85;86.38
47757;SHT35;22147;52.388;13.390;2023-08-06T00:51:29;16.84;86.54
47757;SHT35;22147;52.388;13.390;2023-08-06T00:53:59;16.85;86.68
47757;SHT35;22147;52.388;13.390;2023-08-06T00:56:30;16.83;86.85
47757;SHT35;22147;52.388;13.390;2023-08-06T00:59:01;16.80;86.92
47757;SHT35;22147;52.388;13.390;2023-08-06T01:01:31;16.76;87.01
47757;SHT35;22147;52.388;13.390;2023-08-06T01:04:02;16.77;87.13
47757;SHT35;22147;52.388;13.390;2023-08-06T01:13:16;16.70;87.39
47757;SHT35;22147;52.388;13.390;2023-08-06T01:15:55;16.67;87.46
47757;SHT35;22147;52.388;13.390;2023-08-06T01:18:27;16.67;87.57
47757;SHT35;22147;52.388;13.390;2023-08-06T01:20:57;16.66;87.66
47757;SHT35;22147;52.388;13.390;2023-08-06T01:23:27;16.59;87.81
47757;SHT35;22147;52.388;13.390;2023-08-06T01:26:15;16.56;87.95
47757;SHT35;22147;52.388;13.390;2023-08-06T01:29:21;16.55;88.08
47757;SHT35;22147;52.388;13.390;2023-08-06T01:31:57;16.53;88.17
47757;SHT35;22147;52.388;13.390;2023-08-06T01:34:33;16.50;88.36
47757;SHT35;22147;52.388;13.390;2023-08-06T01:37:05;16.49;88.55
47757;SHT35;22147;52.388;13.390;2023-08-06T01:39:35;16.46;88.62
47757;SHT35;22147;52.388;13.390;2023-08-06T01:42:08;16.46;88.75
47757;SHT35;22147;52.388;13.390;2023-08-06T01:44:38;16.40;88.95
47757;SHT35;22147;52.388;13.390;2023-08-06T01:47:08;16.39;89.06
47757;SHT35;22147;52.388;13.390;2023-08-06T01:49:38;16.37;89.37
47757;SHT35;22147;52.388;13.390;2023-08-06T01:52:09;16.32;89.67
47757;SHT35;22147;52.388;13.390;2023-08-06T01:54:39;16.29;90.04
47757;SHT35;22147;52.388;13.390;2023-08-06T01:57:10;16.26;90.29
47757;SHT35;22147;52.388;13.390;2023-08-06T01:59:38;16.25;90.39
47757;SHT35;22147;52.388;13.390;2023-08-06T02:02:07;16.22;90.58
47757;SHT35;22147;52.388;13.390;2023-08-06T02:04:35;16.23;90.68
47757;SHT35;22147;52.388;13.390;2023-08-06T02:07:04;16.23;90.79
47757;SHT35;22147;52.388;13.390;2023-08-06T02:09:32;16.25;90.83
47757;SHT35;22147;52.388;13.390;2023-08-06T02:12:00;16.28;90.86
47757;SHT35;22147;52.388;13.390;2023-08-06T02:14:29;16.22;90.93
47757;SHT35;22147;52.388;13.390;2023-08-06T02:16:57;16.21;91.04
47757;SHT35;22147;52.388;13.390;2023-08-06T02:19:25;16.19;90.95
47757;SHT35;22147;52.388;13.390;2023-08-06T02:21:54;16.19;90.93
47757;SHT35;22147;52.388;13.390;2023-08-06T02:24:22;16.18;90.98
47757;SHT35;22147;52.388;13.390;2023-08-06T02:26:54;16.15;90.95
47757;SHT35;22147;52.388;13.390;2023-08-06T02:29:25;16.12;90.88
47757;SHT35;22147;52.388;13.390;2023-08-06T02:31:55;16.09;90.83
47757;SHT35;22147;52.388;13.390;2023-08-06T02:34:26;16.06;90.85
47757;SHT35;22147;52.388;13.390;2023-08-06T02:36:55;16.08;90.84
47757;SHT35;22147;52.388;13.390;2023-08-06T02:39:25;16.04;90.88
47757;SHT35;22147;52.388;13.390;2023-08-06T02:41:55;16.08;90.90
47757;SHT35;22147;52.388;13.390;2023-08-06T02:44:29;16.09;90.83
47757;SHT35;22147;52.388;13.390;2023-08-06T02:46:59;15.98;90.75
47757;SHT35;22147;52.388;13.390;2023-08-06T02:49:28;15.95;90.76
47757;SHT35;22147;52.388;13.390;2023-08-06T02:51:58;15.90;90.81
47757;SHT35;22147;52.388;13.390;2023-08-06T02:54:28;15.82;90.90
47757;SHT35;22147;52.388;13.390;2023-08-06T02:56:58;15.82;91.07
47757;SHT35;22147;52.388;13.390;2023-08-06T02:59:28;15.75;91.20
47757;SHT35;22147;52.388;13.390;2023-08-06T03:01:58;15.75;91.33
47757;SHT35;22147;52.388;13.390;2023-08-06T03:04:26;15.78;91.36
47757;SHT35;22147;52.388;13.390;2023-08-06T03:06:55;15.77;91.31
47757;SHT35;22147;52.388;13.390;2023-08-06T03:09:23;15.74;91.31
47757;SHT35;22147;52.388;13.390;2023-08-06T03:11:52;15.70;91.43
47757;SHT35;22147;52.388;13.390;2023-08-06T03:14:20;15.71;91.52
47757;SHT35;22147;52.388;13.390;2023-08-06T03:16:48;15.64;91.57
47757;SHT35;22147;52.388;13.390;2023-08-06T03:19:17;15.64;91.69
47757;SHT35;22147;52.388;13.390;2023-08-06T03:21:45;15.67;91.71
47757;SHT35;22147;52.388;13.390;2023-08-06T03:24:14;15.61;91.82
47757;SHT35;22147;52.388;13.390;2023-08-06T03:26:42;15.61;91.91
47757;SHT35;22147;52.388;13.390;2023-08-06T03:29:11;15.63;91.98
47757;SHT35;22147;52.388;13.390;2023-08-06T03:31:39;15.63;92.00
47757;SHT35;22147;52.388;13.390;2023-08-06T03:34:07;15.65;91.98
47757;SHT35;22147;52.388;13.390;2023-08-06T03:36:36;15.61;92.00
47757;SHT35;22147;52.388;13.390;2023-08-06T03:39:04;15.61;92.01
47757;SHT35;22147;52.388;13.390;2023-08-06T03:41:33;15.58;92.05
47757;SHT35;22147;52.388;13.390;2023-08-06T03:44:02;15.55;92.10
47757;SHT35;22147;52.388;13.390;2023-08-06T03:46:32;15.51;92.20
47757;SHT35;22147;52.388;13.390;2023-08-06T03:49:01;15.53;92.25
47757;SHT35;22147;52.388;13.390;2023-08-06T03:51:29;15.54;92.31
47757;SHT35;22147;52.388;13.390;2023-08-06T03:53:58;15.54;92.39
47757;SHT35;22147;52.388;13.390;2023-08-06T03:56:26;15.55;92.40
47757;SHT35;22147;52.388;13.390;2023-08-06T03:58:55;15.61;92.42
47757;SHT35;22147;52.388;13.390;2023-08-06T04:01:23;15.61;92.41
47757;SHT35;22147;52.388;13.390;2023-08-06T04:03:51;15.64;92.48
47757;SHT35;22147;52.388;13.390;2023-08-06T04:06:20;15.67;92.47
47757;SHT35;22147;52.388;13.390;2023-08-06T04:08:48;15.73;92.48
47757;SHT35;22147;52.388;13.390;2023-08-06T04:11:17;15.70;92.37
47757;SHT35;22147;52.388;13.390;2023-08-06T04:13:45;15.70;92.37
47757;SHT35;22147;52.388;13.390;2023-08-06T04:16:14;15.71;92.43
47757;SHT35;22147;52.388;13.390;2023-08-06T04:18:42;15.73;92.35
47757;SHT35;22147;52.388;13.390;2023-08-06T04:21:10;15.75;92.33
47757;SHT35;22147;52.388;13.390;2023-08-06T04:23:39;15.79;92.33
47757;SHT35;22147;52.388;13.390;2023-08-06T04:26:07;15.75;92.17
47757;SHT35;22147;52.388;13.390;2023-08-06T04:28:36;15.75;92.16
47757;SHT35;22147;52.388;13.390;2023-08-06T04:31:04;15.75;92.18
47757;SHT35;22147;52.388;13.390;2023-08-06T04:33:32;15.81;92.12
47757;SHT35;22147;52.388;13.390;2023-08-06T04:36:01;15.79;92.11
47757;SHT35;22147;52.388;13.390;2023-08-06T04:38:29;15.81;92.12
47757;SHT35;22147;52.388;13.390;2023-08-06T04:40:58;15.85;92.12
47757;SHT35;22147;52.388;13.390;2023-08-06T04:43:26;15.90;92.13
47757;SHT35;22147;52.388;13.390;2023-08-06T04:45:55;15.91;92.06
47757;SHT35;22147;52.388;13.390;2023-08-06T04:48:26;15.92;92.04
47757;SHT35;22147;52.388;13.390;2023-08-06T04:50:56;15.95;91.84
47757;SHT35;22147;52.388;13.390;2023-08-06T04:53:26;15.92;91.74
47757;SHT35;22147;52.388;13.390;2023-08-06T04:55:56;15.88;91.80
47757;SHT35;22147;52.388;13.390;2023-08-06T04:58:25;15.88;91.85
47757;SHT35;22147;52.388;13.390;2023-08-06T05:00:55;15.95;91.77
47757;SHT35;22147;52.388;13.390;2023-08-06T05:03:25;15.94;91.59
47757;SHT35;22147;52.388;13.390;2023-08-06T05:05:55;15.97;91.63
47757;SHT35;22147;52.388;13.390;2023-08-06T05:08:25;15.94;91.59
47757;SHT35;22147;52.388;13.390;2023-08-06T05:10:55;15.91;91.56
47757;SHT35;22147;52.388;13.390;2023-08-06T05:13:25;15.92;91.50
47757;SHT35;22147;52.388;13.390;2023-08-06T05:15:55;15.88;91.47
47757;SHT35;22147;52.388;13.390;2023-08-06T05:18:25;15.92;91.52
47757;SHT35;22147;52.388;13.390;2023-08-06T05:20:55;16.02;91.51
47757;SHT35;22147;52.388;13.390;2023-08-06T05:23:25;16.02;91.48
47757;SHT35;22147;52.388;13.390;2023-08-06T05:25:54;15.97;91.33
47757;SHT35;22147;52.388;13.390;2023-08-06T05:28:25;15.94;91.35
47757;SHT35;22147;52.388;13.390;2023-08-06T05:30:54;15.95;91.32
47757;SHT35;22147;52.388;13.390;2023-08-06T05:33:24;16.06;91.34
47757;SHT35;22147;52.388;13.390;2023-08-06T05:35:54;16.02;91.21
47757;SHT35;22147;52.388;13.390;2023-08-06T05:38:24;16.01;91.27
47757;SHT35;22147;52.388;13.390;2023-08-06T05:40:54;16.04;91.32
47757;SHT35;22147;52.388;13.390;2023-08-06T05:43:25;16.09;91.37
47757;SHT35;22147;52.388;13.390;2023-08-06T05:45:56;16.12;91.40
47757;SHT35;22147;52.388;13.390;2023-08-06T05:48:26;16.12;91.34
47757;SHT35;22147;52.388;13.390;2023-08-06T05:50:54;16.19;91.40
47757;SHT35;22147;52.388;13.390;2023-08-06T05:53:23;16.22;90.98
47757;SHT35;22147;52.388;13.390;2023-08-06T05:55:51;16.15;90.97
47757;SHT35;22147;52.388;13.390;2023-08-06T05:58:20;16.11;90.89
47757;SHT35;22147;52.388;13.390;2023-08-06T06:00:48;16.08;90.96
47757;SHT35;22147;52.388;13.390;2023-08-06T06:03:16;16.09;91.04
47757;SHT35;22147;52.388;13.390;2023-08-06T06:05:45;16.19;91.08
47757;SHT35;22147;52.388;13.390;2023-08-06T06:08:13;16.26;91.14
47757;SHT35;22147;52.388;13.390;2023-08-06T06:10:42;16.32;91.08
47757;SHT35;22147;52.388;13.390;2023-08-06T06:13:10;16.36;90.83
47757;SHT35;22147;52.388;13.390;2023-08-06T06:15:38;16.39;90.66
47757;SHT35;22147;52.388;13.390;2023-08-06T06:18:07;16.40;90.66
47757;SHT35;22147;52.388;13.390;2023-08-06T06:20:35;16.37;90.24
47757;SHT35;22147;52.388;13.390;2023-08-06T06:23:04;16.33;90.34
47757;SHT35;22147;52.388;13.390;2023-08-06T06:25:32;16.33;90.63
47757;SHT35;22147;52.388;13.390;2023-08-06T06:28:00;16.32;90.70
47757;SHT35;22147;52.388;13.390;2023-08-06T06:30:29;16.40;90.77
47757;SHT35;22147;52.388;13.390;2023-08-06T06:32:57;16.50;90.87
47757;SHT35;22147;52.388;13.390;2023-08-06T06:35:26;16.60;90.69
47757;SHT35;22147;52.388;13.390;2023-08-06T06:37:54;16.70;90.19
47757;SHT35;22147;52.388;13.390;2023-08-06T06:40:23;16.70;89.93
47757;SHT35;22147;52.388;13.390;2023-08-06T06:42:51;16.71;89.91
47757;SHT35;22147;52.388;13.390;2023-08-06T06:45:20;16.76;89.76
47757;SHT35;22147;52.388;13.390;2023-08-06T06:47:48;16.74;89.66
47757;SHT35;22147;52.388;13.390;2023-08-06T06:50:15;16.74;89.69
47757;SHT35;22147;52.388;13.390;2023-08-06T06:52:44;16.77;89.44
47757;SHT35;22147;52.388;13.390;2023-08-06T06:55:12;16.77;89.03
47757;SHT35;22147;52.388;13.390;2023-08-06T06:57:41;16.91;89.12
47757;SHT35;22147;52.388;13.390;2023-08-06T07:00:10;16.92;88.53
47757;SHT35;22147;52.388;13.390;2023-08-06T07:02:37;16.88;88.75
47757;SHT35;22147;52.388;13.390;2023-08-06T07:05:06;16.92;88.94
47757;SHT35;22147;52.388;13.390;2023-08-06T07:07:34;16.95;88.86
47757;SHT35;22147;52.388;13.390;2023-08-06T07:10:03;16.97;88.98
47757;SHT35;22147;52.388;13.390;2023-08-06T07:12:31;17.02;89.13
47757;SHT35;22147;52.388;13.390;2023-08-06T07:14:59;17.08;89.29
47757;SHT35;22147;52.388;13.390;2023-08-06T07:17:28;17.14;89.21
47757;SHT35;22147;52.388;13.390;2023-08-06T07:19:56;17.18;88.77
47757;SHT35;22147;52.388;13.390;2023-08-06T07:22:25;17.11;88.59
47757;SHT35;22147;52.388;13.390;2023-08-06T07:24:53;17.14;88.78
47757;SHT35;22147;52.388;13.390;2023-08-06T07:27:21;17.04;87.87
47757;SHT35;22147;52.388;13.390;2023-08-06T07:29:50;16.97;88.05
47757;SHT35;22147;52.388;13.390;2023-08-06T07:32:18;16.98;88.41
47757;SHT35;22147;52.388;13.390;2023-08-06T07:34:47;17.01;88.54
47757;SHT35;22147;52.388;13.390;2023-08-06T07:37:15;17.04;88.81
47757;SHT35;22147;52.388;13.390;2023-08-06T07:39:43;17.08;88.81
47757;SHT35;22147;52.388;13.390;2023-08-06T07:42:12;17.14;88.85
47757;SHT35;22147;52.388;13.390;2023-08-06T07:44:40;17.21;88.31
47757;SHT35;22147;52.388;13.390;2023-08-06T07:47:09;17.25;88.14
47757;SHT35;22147;52.388;13.390;2023-08-06T07:49:37;17.25;88.10
47757;SHT35;22147;52.388;13.390;2023-08-06T07:52:06;17.32;87.66
47757;SHT35;22147;52.388;13.390;2023-08-06T07:54:34;17.31;87.44
47757;SHT35;22147;52.388;13.390;2023-08-06T07:57:03;17.34;87.13
47757;SHT35;22147;52.388;13.390;2023-08-06T07:59:31;17.32;87.06
47757;SHT35;22147;52.388;13.390;2023-08-06T08:02:00;17.35;87.27
47757;SHT35;22147;52.388;13.390;2023-08-06T08:04:31;17.34;86.86
47757;SHT35;22147;52.388;13.390;2023-08-06T08:07:01;17.40;87.28
47757;SHT35;22147;52.388;13.390;2023-08-06T08:09:32;17.43;87.17
47757;SHT35;22147;52.388;13.390;2023-08-06T08:12:02;17.55;87.15
47757;SHT35;22147;52.388;13.390;2023-08-06T08:14:33;17.62;86.98
47757;SHT35;22147;52.388;13.390;2023-08-06T08:17:06;17.71;86.87
47757;SHT35;22147;52.388;13.390;2023-08-06T08:19:37;17.76;85.96
47757;SHT35;22147;52.388;13.390;2023-08-06T08:22:07;17.78;85.84
47757;SHT35;22147;52.388;13.390;2023-08-06T08:24:37;17.88;85.93
47757;SHT35;22147;52.388;13.390;2023-08-06T08:27:07;17.98;85.56
47757;SHT35;22147;52.388;13.390;2023-08-06T08:29:38;17.98;85.18
47757;SHT35;22147;52.388;13.390;2023-08-06T08:32:08;17.94;85.45
47757;SHT35;22147;52.388;13.390;2023-08-06T08:34:38;17.90;85.43
47757;SHT35;22147;52.388;13.390;2023-08-06T08:37:08;17.84;85.73
47757;SHT35;22147;52.388;13.390;2023-08-06T08:39:39;17.76;85.68
47757;SHT35;22147;52.388;13.390;2023-08-06T08:42:10;17.77;86.09
47757;SHT35;22147;52.388;13.390;2023-08-06T08:44:43;17.81;86.09
47757;SHT35;22147;52.388;13.390;2023-08-06T08:47:15;17.86;85.93
47757;SHT35;22147;52.388;13.390;2023-08-06T08:49:52;17.93;86.11
47757;SHT35;22147;52.388;13.390;2023-08-06T08:52:26;17.93;86.03
47757;SHT35;22147;52.388;13.390;2023-08-06T08:55:02;17.98;86.16
47757;SHT35;22147;52.388;13.390;2023-08-06T08:57:32;18.00;86.05
47757;SHT35;22147;52.388;13.390;2023-08-06T09:00:00;18.08;86.36
47757;SHT35;22147;52.388;13.390;2023-08-06T09:02:33;18.13;85.57
47757;SHT35;22147;52.388;13.390;2023-08-06T09:05:06;18.15;85.60
47757;SHT35;22147;52.388;13.390;2023-08-06T09:07:47;18.15;85.19
47757;SHT35;22147;52.388;13.390;2023-08-06T09:10:21;18.24;85.45
47757;SHT35;22147;52.388;13.390;2023-08-06T09:12:57;18.35;84.90
47757;SHT35;22147;52.388;13.390;2023-08-06T09:15:27;18.35;84.80
47757;SHT35;22147;52.388;13.390;2023-08-06T09:17:57;18.34;84.83
47757;SHT35;22147;52.388;13.390;2023-08-06T09:20:25;18.35;84.83
47757;SHT35;22147;52.388;13.390;2023-08-06T09:22:54;18.44;85.54
47757;SHT35;22147;52.388;13.390;2023-08-06T09:25:25;18.39;85.37
47757;SHT35;22147;52.388;13.390;2023-08-06T09:27:56;18.42;85.63
47757;SHT35;22147;52.388;13.390;2023-08-06T09:30:34;18.49;86.42
47757;SHT35;22147;52.388;13.390;2023-08-06T09:33:09;18.46;85.61
47757;SHT35;22147;52.388;13.390;2023-08-06T09:35:47;18.42;85.37
47757;SHT35;22147;52.388;13.390;2023-08-06T09:38:17;18.45;85.45
47757;SHT35;22147;52.388;13.390;2023-08-06T09:40:47;18.44;85.63
47757;SHT35;22147;52.388;13.390;2023-08-06T09:43:19;18.39;85.92
47757;SHT35;22147;52.388;13.390;2023-08-06T09:45:47;18.44;86.02
47757;SHT35;22147;52.388;13.390;2023-08-06T09:48:16;18.42;85.80
47757;SHT35;22147;52.388;13.390;2023-08-06T09:50:44;18.41;85.50
47757;SHT35;22147;52.388;13.390;2023-08-06T09:53:19;18.51;86.08
47757;SHT35;22147;52.388;13.390;2023-08-06T09:55:50;18.51;85.72
47757;SHT35;22147;52.388;13.390;2023-08-06T09:58:24;18.59;85.65
47757;SHT35;22147;52.388;13.390;2023-08-06T10:00:55;18.66;85.33
47757;SHT35;22147;52.388;13.390;2023-08-06T10:03:28;18.72;84.68
47757;SHT35;22147;52.388;13.390;2023-08-06T10:05:59;18.82;83.61
47757;SHT35;22147;52.388;13.390;2023-08-06T10:08:32;18.66;83.57
47757;SHT35;22147;52.388;13.390;2023-08-06T10:11:04;18.53;83.26
47757;SHT35;22147;52.388;13.390;2023-08-06T10:13:38;18.49;84.27
47757;SHT35;22147;52.388;13.390;2023-08-06T10:16:09;18.53;84.91
47757;SHT35;22147;52.388;13.390;2023-08-06T10:18:42;18.65;84.59
47757;SHT35;22147;52.388;13.390;2023-08-06T10:21:13;18.68;84.64
47757;SHT35;22147;52.388;13.390;2023-08-06T10:23:44;18.75;84.48
47757;SHT35;22147;52.388;13.390;2023-08-06T10:26:16;18.77;84.57
47757;SHT35;22147;52.388;13.390;2023-08-06T10:28:47;18.79;84.54
47757;SHT35;22147;52.388;13.390;2023-08-06T10:31:17;18.77;84.02
47757;SHT35;22147;52.388;13.390;2023-08-06T10:33:48;18.75;84.04
47757;SHT35;22147;52.388;13.390;2023-08-06T10:36:18;18.66;84.18
47757;SHT35;22147;52.388;13.390;2023-08-06T10:38:50;18.69;84.79
47757;SHT35;22147;52.388;13.390;2023-08-06T10:41:29;18.73;84.94
47757;SHT35;22147;52.388;13.390;2023-08-06T10:44:08;18.68;85.09
47757;SHT35;22147;52.388;13.390;2023-08-06T10:46:39;18.79;84.64
47757;SHT35;22147;52.388;13.390;2023-08-06T10:49:12;18.79;84.07
47757;SHT35;22147;52.388;13.390;2023-08-06T10:51:44;18.73;84.90
47757;SHT35;22147;52.388;13.390;2023-08-06T10:54:15;18.69;84.64
47757;SHT35;22147;52.388;13.390;2023-08-06T10:56:45;18.72;84.25
47757;SHT35;22147;52.388;13.390;2023-08-06T10:59:16;18.66;84.76
47757;SHT35;22147;52.388;13.390;2023-08-06T11:01:46;18.65;85.29
47757;SHT35;22147;52.388;13.390;2023-08-06T11:04:13;18.69;85.11
47757;SHT35;22147;52.388;13.390;2023-08-06T11:06:52;18.57;84.52
47757;SHT35;22147;52.388;13.390;2023-08-06T11:09:25;18.59;85.01
47757;SHT35;22147;52.388;13.390;2023-08-06T11:11:56;18.48;85.07
47757;SHT35;22147;52.388;13.390;2023-08-06T11:14:26;18.52;85.37
47757;SHT35;22147;52.388;13.390;2023-08-06T11:16:57;18.45;85.23
47757;SHT35;22147;52.388;13.390;2023-08-06T11:19:27;18.48;85.41
47757;SHT35;22147;52.388;13.390;2023-08-06T11:21:58;18.51;85.74
47757;SHT35;22147;52.388;13.390;2023-08-06T11:24:29;18.48;85.68
47757;SHT35;22147;52.388;13.390;2023-08-06T11:26:59;18.39;85.82
47757;SHT35;22147;52.388;13.390;2023-08-06T11:29:30;18.35;86.17
47757;SHT35;22147;52.388;13.390;2023-08-06T11:32:06;18.36;86.79
47757;SHT35;22147;52.388;13.390;2023-08-06T11:34:36;18.34;86.83
47757;SHT35;22147;52.388;13.390;2023-08-06T11:37:07;18.32;86.64
47757;SHT35;22147;52.388;13.390;2023-08-06T11:39:39;18.31;86.41
47757;SHT35;22147;52.388;13.390;2023-08-06T11:42:14;18.38;86.34
47757;SHT35;22147;52.388;13.390;2023-08-06T11:44:44;18.34;86.41
47757;SHT35;22147;52.388;13.390;2023-08-06T11:47:17;18.39;86.61
47757;SHT35;22147;52.388;13.390;2023-08-06T11:49:49;18.36;86.30
47757;SHT35;22147;52.388;13.390;2023-08-06T11:52:23;18.38;86.39
47757;SHT35;22147;52.388;13.390;2023-08-06T11:55:09;18.45;86.48
47757;SHT35;22147;52.388;13.390;2023-08-06T11:57:45;18.41;86.00
47757;SHT35;22147;52.388;13.390;2023-08-06T12:00:15;18.36;86.40
47757;SHT35;22147;52.388;13.390;2023-08-06T12:02:48;18.39;86.69
47757;SHT35;22147;52.388;13.390;2023-08-06T12:05:23;18.35;86.92
47757;SHT35;22147;52.388;13.390;2023-08-06T12:08:00;18.31;87.17
47757;SHT35;22147;52.388;13.390;2023-08-06T12:10:32;18.31;87.60
47757;SHT35;22147;52.388;13.390;2023-08-06T12:13:02;18.28;87.73
47757;SHT35;22147;52.388;13.390;2023-08-06T12:15:33;18.24;87.34
47757;SHT35;22147;52.388;13.390;2023-08-06T12:18:03;18.13;87.42
47757;SHT35;22147;52.388;13.390;2023-08-06T12:20:33;18.06;87.76
47757;SHT35;22147;52.388;13.390;2023-08-06T12:23:03;18.06;88.02
47757;SHT35;22147;52.388;13.390;2023-08-06T12:25:33;18.03;88.04
47757;SHT35;22147;52.388;13.390;2023-08-06T12:28:03;17.97;87.90
47757;SHT35;22147;52.388;13.390;2023-08-06T12:30:33;17.87;88.17
47757;SHT35;22147;52.388;13.390;2023-08-06T12:33:03;17.83;88.40
47757;SHT35;22147;52.388;13.390;2023-08-06T12:35:33;17.69;88.47
47757;SHT35;22147;52.388;13.390;2023-08-06T12:38:01;17.53;87.43
47757;SHT35;22147;52.388;13.390;2023-08-06T12:40:30;17.38;87.29
47757;SHT35;22147;52.388;13.390;2023-08-06T12:43:06;17.25;87.62
47757;SHT35;22147;52.388;13.390;2023-08-06T12:45:36;17.28;87.08
47757;SHT35;22147;52.388;13.390;2023-08-06T12:48:06;17.19;87.15
47757;SHT35;22147;52.388;13.390;2023-08-06T12:50:36;17.21;87.62
47757;SHT35;22147;52.388;13.390;2023-08-06T12:53:06;17.22;87.94
47757;SHT35;22147;52.388;13.390;2023-08-06T12:55:36;17.25;87.84
47757;SHT35;22147;52.388;13.390;2023-08-06T12:58:06;17.15;87.68
47757;SHT35;22147;52.388;13.390;2023-08-06T13:00:36;17.14;88.02
47757;SHT35;22147;52.388;13.390;2023-08-06T13:03:06;17.11;88.29
47757;SHT35;22147;52.388;13.390;2023-08-06T13:05:36;17.14;88.55
47757;SHT35;22147;52.388;13.390;2023-08-06T13:08:07;17.07;88.21
47757;SHT35;22147;52.388;13.390;2023-08-06T13:10:37;17.02;87.40
47757;SHT35;22147;52.388;13.390;2023-08-06T13:13:06;16.94;87.60
47757;SHT35;22147;52.388;13.390;2023-08-06T13:15:36;16.83;87.92
47757;SHT35;22147;52.388;13.390;2023-08-06T13:18:06;16.77;88.30
47757;SHT35;22147;52.388;13.390;2023-08-06T13:20:39;16.76;88.38
47757;SHT35;22147;52.388;13.390;2023-08-06T13:23:10;16.66;88.20
47757;SHT35;22147;52.388;13.390;2023-08-06T13:25:40;16.67;88.52
47757;SHT35;22147;52.388;13.390;2023-08-06T13:28:10;16.66;88.26
47757;SHT35;22147;52.388;13.390;2023-08-06T13:30:40;16.57;87.84
47757;SHT35;22147;52.388;13.390;2023-08-06T13:33:12;16.53;87.89
47757;SHT35;22147;52.388;13.390;2023-08-06T13:35:40;16.51;88.10
47757;SHT35;22147;52.388;13.390;2023-08-06T13:38:08;16.47;88.20
47757;SHT35;22147;52.388;13.390;2023-08-06T13:40:37;16.44;88.42
47757;SHT35;22147;52.388;13.390;2023-08-06T13:43:05;16.47;88.69
47757;SHT35;22147;52.388;13.390;2023-08-06T13:45:34;16.47;88.62
47757;SHT35;22147;52.388;13.390;2023-08-06T13:48:02;16.47;88.65
47757;SHT35;22147;52.388;13.390;2023-08-06T13:50:30;16.47;88.42
47757;SHT35;22147;52.388;13.390;2023-08-06T13:52:59;16.49;88.58
47757;SHT35;22147;52.388;13.390;2023-08-06T13:55:27;16.53;88.87
47757;SHT35;22147;52.388;13.390;2023-08-06T13:57:56;16.64;88.50
47757;SHT35;22147;52.388;13.390;2023-08-06T14:00:24;16.66;87.78
47757;SHT35;22147;52.388;13.390;2023-08-06T14:02:52;16.66;88.07
47757;SHT35;22147;52.388;13.390;2023-08-06T14:05:21;16.69;88.25
47757;SHT35;22147;52.388;13.390;2023-08-06T14:07:49;16.73;88.51
47757;SHT35;22147;52.388;13.390;2023-08-06T14:10:18;16.80;88.40
47757;SHT35;22147;52.388;13.390;2023-08-06T14:12:46;16.87;88.72
47757;SHT35;22147;52.388;13.390;2023-08-06T14:15:34;16.88;87.74
47757;SHT35;22147;52.388;13.390;2023-08-06T14:18:04;16.81;87.52
47757;SHT35;22147;52.388;13.390;2023-08-06T14:20:34;16.85;87.30
47757;SHT35;22147;52.388;13.390;2023-08-06T14:23:05;16.83;87.38
47757;SHT35;22147;52.388;13.390;2023-08-06T14:25:35;16.87;87.67
47757;SHT35;22147;52.388;13.390;2023-08-06T14:28:06;16.97;88.33
47757;SHT35;22147;52.388;13.390;2023-08-06T14:30:37;17.07;88.43
47757;SHT35;22147;52.388;13.390;2023-08-06T14:33:06;17.09;88.58
47757;SHT35;22147;52.388;13.390;2023-08-06T14:35:55;17.19;88.49
47757;SHT35;22147;52.388;13.390;2023-08-06T14:38:25;17.14;87.44
47757;SHT35;22147;52.388;13.390;2023-08-06T14:40:55;17.09;87.43
47757;SHT35;22147;52.388;13.390;2023-08-06T14:43:24;17.08;87.69
47757;SHT35;22147;52.388;13.390;2023-08-06T14:45:54;17.08;87.93
47757;SHT35;22147;52.388;13.390;2023-08-06T14:48:24;17.08;88.25
47757;SHT35;22147;52.388;13.390;2023-08-06T14:50:54;17.08;88.57
47757;SHT35;22147;52.388;13.390;2023-08-06T14:53:25;17.14;88.79
47757;SHT35;22147;52.388;13.390;2023-08-06T14:55:54;17.21;88.86
47757;SHT35;22147;52.388;13.390;2023-08-06T14:58:24;17.31;88.91
47757;SHT35;22147;52.388;13.390;2023-08-06T15:00:54;17.34;88.89
47757;SHT35;22147;52.388;13.390;2023-08-06T15:03:24;17.29;88.16
47757;SHT35;22147;52.388;13.390;2023-08-06T15:05:53;17.24;88.08
47757;SHT35;22147;52.388;13.390;2023-08-06T15:08:21;17.29;88.31
47757;SHT35;22147;52.388;13.390;2023-08-06T15:10:52;17.32;88.38
47757;SHT35;22147;52.388;13.390;2023-08-06T15:13:21;17.39;88.80
47757;SHT35;22147;52.388;13.390;2023-08-06T15:15:50;17.40;89.15
47757;SHT35;22147;52.388;13.390;2023-08-06T15:18:18;17.48;89.42
47757;SHT35;22147;52.388;13.390;2023-08-06T15:20:46;17.56;89.29
47757;SHT35;22147;52.388;13.390;2023-08-06T15:23:15;17.60;89.40
47757;SHT35;22147;52.388;13.390;2023-08-06T15:25:46;17.66;89.49
47757;SHT35;22147;52.388;13.390;2023-08-06T15:28:15;17.71;89.64
47757;SHT35;22147;52.388;13.390;2023-08-06T15:30:50;17.80;89.62
47757;SHT35;22147;52.388;13.390;2023-08-06T15:33:21;17.81;88.37
47757;SHT35;22147;52.388;13.390;2023-08-06T15:35:52;17.73;88.54
47757;SHT35;22147;52.388;13.390;2023-08-06T15:38:22;17.71;88.71
47757;SHT35;22147;52.388;13.390;2023-08-06T15:40:53;17.70;88.87